sensor_id;sensor_type;location;lat;lon;timestamp;pressure;altitude;pressure_sealevel;temperature;humidity
30714;BME280;17465;47.934;33.430;2022-12-18T00:00:02;57382.32;;;-140.43;100.00
30714;BME280;17465;47.934;33.430;2022-12-18T00:02:57;57382.32;;;-140.43;100.00
30714;BME280;17465;47.934;33.430;2022-12-18T00:08:23;57402.45;;;-140.43;100.00
30714;BME280;17465;47.934;33.430;2022-12-18T00:11:11;57403.51;;;-140.43;100.00
30714;BME280;17465;47.934;33.430;2022-12-18T00:13:45;57367.50;;;-140.43;100.00
30714;BME280;17465;47.934;33.430;2022-12-18T00:16:21;57398.21;;;-140.43;100.00
30714;BME280;17465;47.934;33.430;2022-12-18T00:18:55;57385.50;;;-140.43;100.00
30714;BME280;17465;47.934;33.430;2022-12-18T00:21:29;57385.50;;;-140.43;100.00
30714;BME280;17465;47.934;33.430;2022-12-18T00:24:00;57397.15;;;-140.43;100.00
30714;BME280;17465;47.934;33.430;2022-12-18T00:26:33;57395.03;;;-140.43;100.00
30714;BME280;17465;47.934;33.430;2022-12-18T00:29:06;57402.45;;;-140.43;100.00
30714;BME280;17465;47.934;33.430;2022-12-18T00:31:37;57407.74;;;-140.43;100.00
30714;BME280;17465;47.934;33.430;2022-12-18T00:34:10;57392.91;;;-140.43;100.00
30714;BME280;17465;47.934;33.430;2022-12-18T00:36:41;57401.39;;;-140.43;100.00
30714;BME280;17465;47.934;33.430;2022-12-18T00:39:11;57391.86;;;-140.43;100.00
30714;BME280;17465;47.934;33.430;2022-12-18T00:41:41;57391.86;;;-140.43;100.00
30714;BME280;17465;47.934;33.430;2022-12-18T00:44:15;57381.27;;;-140.43;100.00
30714;BME280;17465;47.934;33.430;2022-12-18T00:46:48;57377.03;;;-140.43;100.00
30714;BME280;17465;47.934;33.430;2022-12-18T00:49:22;57389.74;;;-140.43;100.00
30714;BME280;17465;47.934;33.430;2022-12-18T00:51:52;57427.87;;;-140.43;100.00
30714;BME280;17465;47.934;33.430;2022-12-18T00:54:22;57413.04;;;-140.43;100.00
30714;BME280;17465;47.934;33.430;2022-12-18T00:56:55;57391.86;;;-140.43;100.00
30714;BME280;17465;47.934;33.430;2022-12-18T00:59:25;57409.86;;;-140.43;100.00
30714;BME280;17465;47.934;33.430;2022-12-18T01:01:55;57409.86;;;-140.43;100.00
30714;BME280;17465;47.934;33.430;2022-12-18T01:04:33;57367.50;;;-140.43;100.00
30714;BME280;17465;47.934;33.430;2022-12-18T01:07:04;57367.50;;;-140.43;100.00
30714;BME280;17465;47.934;33.430;2022-12-18T01:09:34;57386.56;;;-140.43;100.00
30714;BME280;17465;47.934;33.430;2022-12-18T01:12:05;57408.80;;;-140.43;100.00
30714;BME280;17465;47.934;33.430;2022-12-18T01:14:36;57391.86;;;-140.43;100.00
30714;BME280;17465;47.934;33.430;2022-12-18T01:17:07;57422.57;;;-140.43;100.00
30714;BME280;17465;47.934;33.430;2022-12-18T01:19:37;57388.68;;;-140.43;100.00
30714;BME280;17465;47.934;33.430;2022-12-18T01:22:07;57380.21;;;-140.43;100.00
30714;BME280;17465;47.934;33.430;2022-12-18T01:24:37;57411.98;;;-140.43;100.00
30714;BME280;17465;47.934;33.430;2022-12-18T01:27:08;57397.15;;;-140.43;100.00
30714;BME280;17465;47.934;33.430;2022-12-18T01:29:38;57389.74;;;-140.43;100.00
30714;BME280;17465;47.934;33.430;2022-12-18T01:32:10;57389.74;;;-140.43;100.00
30714;BME280;17465;47.934;33.430;2022-12-18T01:34:41;57373.85;;;-140.43;100.00
30714;BME280;17465;47.934;33.430;2022-12-18T01:37:12;57373.85;;;-140.43;100.00
30714;BME280;17465;47.934;33.430;2022-12-18T01:39:45;57388.68;;;-140.43;100.00
30714;BME280;17465;47.934;33.430;2022-12-18T01:42:15;57391.86;;;-140.43;100.00
30714;BME280;17465;47.934;33.430;2022-12-18T01:50:16;57410.92;;;-140.43;100.00
30714;BME280;17465;47.934;33.430;2022-12-18T01:52:52;57410.92;;;-140.43;100.00
30714;BME280;17465;47.934;33.430;2022-12-18T01:55:25;57410.92;;;-140.43;100.00
30714;BME280;17465;47.934;33.430;2022-12-18T01:57:58;57391.86;;;-140.43;100.00
30714;BME280;17465;47.934;33.430;2022-12-18T02:00:29;57403.51;;;-140.43;100.00
30714;BME280;17465;47.934;33.430;2022-12-18T02:03:00;57439.52;;;-140.43;100.00
30714;BME280;17465;47.934;33.430;2022-12-18T02:05:48;57439.52;;;-140.43;100.00
30714;BME280;17465;47.934;33.430;2022-12-18T02:11:32;57424.69;;;-140.43;100.00
30714;BME280;17465;47.934;33.430;2022-12-18T02:23:01;57413.04;;;-140.43;100.00
30714;BME280;17465;47.934;33.430;2022-12-18T02:26:06;57418.33;;;-140.43;100.00
30714;BME280;17465;47.934;33.430;2022-12-18T02:28:46;57418.33;;;-140.43;100.00
30714;BME280;17465;47.934;33.430;2022-12-18T02:31:14;57414.10;;;-140.43;100.00
30714;BME280;17465;47.934;33.430;2022-12-18T02:33:46;57414.10;;;-140.43;100.00
30714;BME280;17465;47.934;33.430;2022-12-18T02:36:19;57388.68;;;-140.43;100.00
30714;BME280;17465;47.934;33.430;2022-12-18T02:38:52;57396.09;;;-140.43;100.00
30714;BME280;17465;47.934;33.430;2022-12-18T02:41:24;57388.68;;;-140.43;100.00
30714;BME280;17465;47.934;33.430;2022-12-18T02:43:57;57424.69;;;-140.43;100.00
30714;BME280;17465;47.934;33.430;2022-12-18T02:46:33;57424.69;;;-140.43;100.00
30714;BME280;17465;47.934;33.430;2022-12-18T02:49:11;57380.21;;;-140.43;100.00
30714;BME280;17465;47.934;33.430;2022-12-18T02:51:50;57408.80;;;-140.43;100.00
30714;BME280;17465;47.934;33.430;2022-12-18T02:54:29;57434.22;;;-140.43;100.00
30714;BME280;17465;47.934;33.430;2022-12-18T02:57:00;57396.09;;;-140.43;100.00
30714;BME280;17465;47.934;33.430;2022-12-18T02:59:38;57396.09;;;-140.43;100.00
30714;BME280;17465;47.934;33.430;2022-12-18T03:02:21;57406.68;;;-140.43;100.00
30714;BME280;17465;47.934;33.430;2022-12-18T03:05:01;57421.51;;;-140.43;100.00
30714;BME280;17465;47.934;33.430;2022-12-18T03:07:38;57417.27;;;-140.43;100.00
30714;BME280;17465;47.934;33.430;2022-12-18T03:10:09;57411.98;;;-140.43;100.00
30714;BME280;17465;47.934;33.430;2022-12-18T03:12:47;57418.33;;;-140.43;100.00
30714;BME280;17465;47.934;33.430;2022-12-18T03:15:22;57371.73;;;-140.43;100.00
30714;BME280;17465;47.934;33.430;2022-12-18T03:17:59;57426.80;;;-140.43;100.00
30714;BME280;17465;47.934;33.430;2022-12-18T03:20:30;57405.62;;;-140.43;100.00
30714;BME280;17465;47.934;33.430;2022-12-18T03:23:09;57405.62;;;-140.43;100.00
30714;BME280;17465;47.934;33.430;2022-12-18T03:25:42;57379.15;;;-140.43;100.00
30714;BME280;17465;47.934;33.430;2022-12-18T03:28:16;57426.80;;;-140.43;100.00
30714;BME280;17465;47.934;33.430;2022-12-18T03:30:49;57414.10;;;-140.43;100.00
30714;BME280;17465;47.934;33.430;2022-12-18T03:36:13;57405.62;;;-140.43;100.00
30714;BME280;17465;47.934;33.430;2022-12-18T03:38:44;57416.21;;;-140.43;100.00
30714;BME280;17465;47.934;33.430;2022-12-18T03:41:19;57423.63;;;-140.43;100.00
30714;BME280;17465;47.934;33.430;2022-12-18T03:44:04;57423.63;;;-140.43;100.00
30714;BME280;17465;47.934;33.430;2022-12-18T03:47:29;57423.63;;;-140.43;100.00
30714;BME280;17465;47.934;33.430;2022-12-18T03:49:22;57429.98;;;-140.43;100.00
30714;BME280;17465;47.934;33.430;2022-12-18T03:52:15;57419.39;;;-140.43;100.00
30714;BME280;17465;47.934;33.430;2022-12-18T03:54:46;57410.92;;;-140.43;100.00
30714;BME280;17465;47.934;33.430;2022-12-18T03:57:19;57422.57;;;-140.43;100.00
30714;BME280;17465;47.934;33.430;2022-12-18T03:59:57;57406.68;;;-140.43;100.00
30714;BME280;17465;47.934;33.430;2022-12-18T04:02:24;57424.69;;;-140.43;100.00
30714;BME280;17465;47.934;33.430;2022-12-18T04:04:56;57426.80;;;-140.43;100.00
30714;BME280;17465;47.934;33.430;2022-12-18T04:07:28;57429.98;;;-140.43;100.00
30714;BME280;17465;47.934;33.430;2022-12-18T04:10:01;57429.98;;;-140.43;100.00
30714;BME280;17465;47.934;33.430;2022-12-18T04:12:32;57410.92;;;-140.43;100.00
30714;BME280;17465;47.934;33.430;2022-12-18T04:15:03;57407.74;;;-140.43;100.00
30714;BME280;17465;47.934;33.430;2022-12-18T04:17:34;57441.63;;;-140.43;100.00
30714;BME280;17465;47.934;33.430;2022-12-18T04:20:04;57441.63;;;-140.43;100.00
30714;BME280;17465;47.934;33.430;2022-12-18T04:22:36;57450.11;;;-140.43;100.00
30714;BME280;17465;47.934;33.430;2022-12-18T04:25:06;57450.11;;;-140.43;100.00
30714;BME280;17465;47.934;33.430;2022-12-18T04:27:37;57425.75;;;-140.43;100.00
30714;BME280;17465;47.934;33.430;2022-12-18T04:30:07;57427.87;;;-140.43;100.00
30714;BME280;17465;47.934;33.430;2022-12-18T04:32:38;57427.87;;;-140.43;100.00
30714;BME280;17465;47.934;33.430;2022-12-18T04:35:09;57428.92;;;-140.43;100.00
30714;BME280;17465;47.934;33.430;2022-12-18T04:37:40;57425.75;;;-140.43;100.00
30714;BME280;17465;47.934;33.430;2022-12-18T04:40:11;57419.39;;;-140.43;100.00
30714;BME280;17465;47.934;33.430;2022-12-18T04:42:41;57434.22;;;-140.43;100.00
30714;BME280;17465;47.934;33.430;2022-12-18T04:45:11;57421.51;;;-140.43;100.00
30714;BME280;17465;47.934;33.430;2022-12-18T04:47:42;57421.51;;;-140.43;100.00
30714;BME280;17465;47.934;33.430;2022-12-18T04:50:12;57460.70;;;-140.43;100.00
30714;BME280;17465;47.934;33.430;2022-12-18T04:52:52;57404.57;;;-140.43;100.00
30714;BME280;17465;47.934;33.430;2022-12-18T04:55:49;57454.34;;;-140.43;100.00
30714;BME280;17465;47.934;33.430;2022-12-18T04:58:44;57414.10;;;-140.43;100.00
30714;BME280;17465;47.934;33.430;2022-12-18T05:01:18;57405.62;;;-140.43;100.00
30714;BME280;17465;47.934;33.430;2022-12-18T05:03:50;57441.63;;;-140.43;100.00
30714;BME280;17465;47.934;33.430;2022-12-18T05:06:21;57444.81;;;-140.43;100.00
30714;BME280;17465;47.934;33.430;2022-12-18T05:08:51;57444.81;;;-140.43;100.00
30714;BME280;17465;47.934;33.430;2022-12-18T05:11:22;57432.10;;;-140.43;100.00
30714;BME280;17465;47.934;33.430;2022-12-18T05:13:53;57455.40;;;-140.43;100.00
30714;BME280;17465;47.934;33.430;2022-12-18T05:16:23;57444.81;;;-140.43;100.00
30714;BME280;17465;47.934;33.430;2022-12-18T05:18:53;57444.81;;;-140.43;100.00
30714;BME280;17465;47.934;33.430;2022-12-18T05:21:23;57422.57;;;-140.43;100.00
30714;BME280;17465;47.934;33.430;2022-12-18T05:23:53;57422.57;;;-140.43;100.00
30714;BME280;17465;47.934;33.430;2022-12-18T05:26:24;57424.69;;;-140.43;100.00
30714;BME280;17465;47.934;33.430;2022-12-18T05:28:54;57429.98;;;-140.43;100.00
30714;BME280;17465;47.934;33.430;2022-12-18T05:31:24;57399.27;;;-140.43;100.00
30714;BME280;17465;47.934;33.430;2022-12-18T05:33:55;57422.57;;;-140.43;100.00
30714;BME280;17465;47.934;33.430;2022-12-18T05:36:27;57429.98;;;-140.43;100.00
30714;BME280;17465;47.934;33.430;2022-12-18T05:38:57;57443.75;;;-140.43;100.00
30714;BME280;17465;47.934;33.430;2022-12-18T05:41:27;57441.63;;;-140.43;100.00
30714;BME280;17465;47.934;33.430;2022-12-18T05:43:58;57424.69;;;-140.43;100.00
30714;BME280;17465;47.934;33.430;2022-12-18T05:46:29;57407.74;;;-140.43;100.00
30714;BME280;17465;47.934;33.430;2022-12-18T05:49:00;57425.75;;;-140.43;100.00
30714;BME280;17465;47.934;33.430;2022-12-18T05:51:32;57425.75;;;-140.43;100.00
30714;BME280;17465;47.934;33.430;2022-12-18T05:54:02;57443.75;;;-140.43;100.00
30714;BME280;17465;47.934;33.430;2022-12-18T05:56:34;57443.75;;;-140.43;100.00
30714;BME280;17465;47.934;33.430;2022-12-18T05:59:05;57425.75;;;-140.43;100.00
30714;BME280;17465;47.934;33.430;2022-12-18T06:01:35;57425.75;;;-140.43;100.00
30714;BME280;17465;47.934;33.430;2022-12-18T06:04:06;57418.33;;;-140.43;100.00
30714;BME280;17465;47.934;33.430;2022-12-18T06:06:37;57418.33;;;-140.43;100.00
30714;BME280;17465;47.934;33.430;2022-12-18T06:09:08;57457.52;;;-140.43;100.00
30714;BME280;17465;47.934;33.430;2022-12-18T06:11:40;57422.57;;;-140.43;100.00
30714;BME280;17465;47.934;33.430;2022-12-18T06:14:11;57419.39;;;-140.43;100.00
30714;BME280;17465;47.934;33.430;2022-12-18T06:16:41;57476.58;;;-140.43;100.00
30714;BME280;17465;47.934;33.430;2022-12-18T06:19:14;57451.16;;;-140.43;100.00
30714;BME280;17465;47.934;33.430;2022-12-18T06:21:44;57456.46;;;-140.43;100.00
30714;BME280;17465;47.934;33.430;2022-12-18T06:24:15;57462.82;;;-140.43;100.00
30714;BME280;17465;47.934;33.430;2022-12-18T06:26:45;57460.70;;;-140.43;100.00
30714;BME280;17465;47.934;33.430;2022-12-18T06:29:16;57469.17;;;-140.43;100.00
30714;BME280;17465;47.934;33.430;2022-12-18T06:31:47;57460.70;;;-140.43;100.00
30714;BME280;17465;47.934;33.430;2022-12-18T06:34:17;57460.70;;;-140.43;100.00
30714;BME280;17465;47.934;33.430;2022-12-18T06:36:48;57443.75;;;-140.43;100.00
30714;BME280;17465;47.934;33.430;2022-12-18T06:39:18;57456.46;;;-140.43;100.00
30714;BME280;17465;47.934;33.430;2022-12-18T06:41:49;57456.46;;;-140.43;100.00
30714;BME280;17465;47.934;33.430;2022-12-18T06:44:19;57437.39;;;-140.43;100.00
30714;BME280;17465;47.934;33.430;2022-12-18T06:46:50;57454.34;;;-140.43;100.00
30714;BME280;17465;47.934;33.430;2022-12-18T06:49:20;57429.98;;;-140.43;100.00
30714;BME280;17465;47.934;33.430;2022-12-18T06:51:55;57458.58;;;-140.43;100.00
30714;BME280;17465;47.934;33.430;2022-12-18T06:54:25;57451.16;;;-140.43;100.00
30714;BME280;17465;47.934;33.430;2022-12-18T06:56:56;57468.11;;;-140.43;100.00
30714;BME280;17465;47.934;33.430;2022-12-18T06:59:26;57464.93;;;-140.43;100.00
30714;BME280;17465;47.934;33.430;2022-12-18T07:01:58;57464.93;;;-140.43;100.00
30714;BME280;17465;47.934;33.430;2022-12-18T07:04:30;57438.46;;;-140.43;100.00
30714;BME280;17465;47.934;33.430;2022-12-18T07:07:00;57468.11;;;-140.43;100.00
30714;BME280;17465;47.934;33.430;2022-12-18T07:09:30;57456.46;;;-140.43;100.00
30714;BME280;17465;47.934;33.430;2022-12-18T07:12:01;57476.58;;;-140.43;100.00
30714;BME280;17465;47.934;33.430;2022-12-18T07:14:31;57476.58;;;-140.43;100.00
30714;BME280;17465;47.934;33.430;2022-12-18T07:17:03;57462.82;;;-140.43;100.00
30714;BME280;17465;47.934;33.430;2022-12-18T07:19:35;57443.75;;;-140.43;100.00
30714;BME280;17465;47.934;33.430;2022-12-18T07:22:05;57452.23;;;-140.43;100.00
30714;BME280;17465;47.934;33.430;2022-12-18T07:24:35;57450.11;;;-140.43;100.00
30714;BME280;17465;47.934;33.430;2022-12-18T07:27:06;57445.87;;;-140.43;100.00
30714;BME280;17465;47.934;33.430;2022-12-18T07:29:37;57434.22;;;-140.43;100.00
30714;BME280;17465;47.934;33.430;2022-12-18T07:32:14;57465.99;;;-140.43;100.00
30714;BME280;17465;47.934;33.430;2022-12-18T07:34:46;57463.87;;;-140.43;100.00
30714;BME280;17465;47.934;33.430;2022-12-18T07:37:16;57462.82;;;-140.43;100.00
30714;BME280;17465;47.934;33.430;2022-12-18T07:39:54;57474.46;;;-140.43;100.00
30714;BME280;17465;47.934;33.430;2022-12-18T07:43:03;57474.46;;;-140.43;100.00
30714;BME280;17465;47.934;33.430;2022-12-18T07:45:34;57434.22;;;-140.43;100.00
30714;BME280;17465;47.934;33.430;2022-12-18T07:48:05;57434.22;;;-140.43;100.00
30714;BME280;17465;47.934;33.430;2022-12-18T07:50:41;57454.34;;;-140.43;100.00
30714;BME280;17465;47.934;33.430;2022-12-18T07:53:15;57455.40;;;-140.43;100.00
30714;BME280;17465;47.934;33.430;2022-12-18T07:55:57;57484.00;;;-140.43;100.00
30714;BME280;17465;47.934;33.430;2022-12-18T07:58:35;57461.76;;;-140.43;100.00
30714;BME280;17465;47.934;33.430;2022-12-18T08:01:12;57444.81;;;-140.43;100.00
30714;BME280;17465;47.934;33.430;2022-12-18T08:03:43;57441.63;;;-140.43;100.00
30714;BME280;17465;47.934;33.430;2022-12-18T08:06:15;57453.28;;;-140.43;100.00
30714;BME280;17465;47.934;33.430;2022-12-18T08:08:47;57462.82;;;-140.43;100.00
30714;BME280;17465;47.934;33.430;2022-12-18T08:11:19;57446.93;;;-140.43;100.00
30714;BME280;17465;47.934;33.430;2022-12-18T08:13:50;57468.11;;;-140.43;100.00
30714;BME280;17465;47.934;33.430;2022-12-18T08:16:22;57457.52;;;-140.43;100.00
30714;BME280;17465;47.934;33.430;2022-12-18T08:18:54;57463.87;;;-140.43;100.00
30714;BME280;17465;47.934;33.430;2022-12-18T08:21:26;57467.05;;;-140.43;100.00
30714;BME280;17465;47.934;33.430;2022-12-18T08:24:01;57467.05;;;-140.43;100.00
30714;BME280;17465;47.934;33.430;2022-12-18T08:26:34;57464.93;;;-140.43;100.00
30714;BME280;17465;47.934;33.430;2022-12-18T08:29:05;57473.41;;;-140.43;100.00
30714;BME280;17465;47.934;33.430;2022-12-18T08:31:47;57452.23;;;-140.43;100.00
30714;BME280;17465;47.934;33.430;2022-12-18T08:34:21;57489.29;;;-140.43;100.00
30714;BME280;17465;47.934;33.430;2022-12-18T08:36:52;57489.29;;;-140.43;100.00
30714;BME280;17465;47.934;33.430;2022-12-18T08:39:22;57468.11;;;-140.43;100.00
30714;BME280;17465;47.934;33.430;2022-12-18T08:41:59;57468.11;;;-140.43;100.00
30714;BME280;17465;47.934;33.430;2022-12-18T08:44:26;57460.70;;;-140.43;100.00
30714;BME280;17465;47.934;33.430;2022-12-18T08:46:57;57472.35;;;-140.43;100.00
30714;BME280;17465;47.934;33.430;2022-12-18T08:49:28;57467.05;;;-140.43;100.00
30714;BME280;17465;47.934;33.430;2022-12-18T08:52:03;57449.05;;;-140.43;100.00
30714;BME280;17465;47.934;33.430;2022-12-18T08:54:37;57478.70;;;-140.43;100.00
30714;BME280;17465;47.934;33.430;2022-12-18T08:57:08;57479.76;;;-140.43;100.00
30714;BME280;17465;47.934;33.430;2022-12-18T08:59:40;57474.46;;;-140.43;100.00
30714;BME280;17465;47.934;33.430;2022-12-18T09:02:20;57471.29;;;-140.43;100.00
30714;BME280;17465;47.934;33.430;2022-12-18T09:04:58;57471.29;;;-140.43;100.00
30714;BME280;17465;47.934;33.430;2022-12-18T09:07:38;57469.17;;;-140.43;100.00
30714;BME280;17465;47.934;33.430;2022-12-18T09:10:14;57475.52;;;-140.43;100.00
30714;BME280;17465;47.934;33.430;2022-12-18T09:12:46;57484.00;;;-140.43;100.00
30714;BME280;17465;47.934;33.430;2022-12-18T09:15:23;57463.87;;;-140.43;100.00
30714;BME280;17465;47.934;33.430;2022-12-18T09:18:01;57442.69;;;-140.43;100.00
30714;BME280;17465;47.934;33.430;2022-12-18T09:20:36;57442.69;;;-140.43;100.00
30714;BME280;17465;47.934;33.430;2022-12-18T09:23:07;57468.11;;;-140.43;100.00
30714;BME280;17465;47.934;33.430;2022-12-18T09:25:41;57454.34;;;-140.43;100.00
30714;BME280;17465;47.934;33.430;2022-12-18T09:28:16;57454.34;;;-140.43;100.00
30714;BME280;17465;47.934;33.430;2022-12-18T09:30:52;57472.35;;;-140.43;100.00
30714;BME280;17465;47.934;33.430;2022-12-18T09:33:23;57471.29;;;-140.43;100.00
30714;BME280;17465;47.934;33.430;2022-12-18T09:36:03;57471.29;;;-140.43;100.00
30714;BME280;17465;47.934;33.430;2022-12-18T09:38:41;57458.58;;;-140.43;100.00
30714;BME280;17465;47.934;33.430;2022-12-18T09:44:12;57497.77;;;-140.43;100.00
30714;BME280;17465;47.934;33.430;2022-12-18T09:46:43;57443.75;;;-140.43;100.00
30714;BME280;17465;47.934;33.430;2022-12-18T09:49:20;57471.29;;;-140.43;100.00
30714;BME280;17465;47.934;33.430;2022-12-18T09:51:49;57475.52;;;-140.43;100.00
30714;BME280;17465;47.934;33.430;2022-12-18T09:54:49;57465.99;;;-140.43;100.00
30714;BME280;17465;47.934;33.430;2022-12-18T09:57:23;57480.82;;;-140.43;100.00
30714;BME280;17465;47.934;33.430;2022-12-18T09:59:57;57438.46;;;-140.43;100.00
30714;BME280;17465;47.934;33.430;2022-12-18T10:02:34;57446.93;;;-140.43;100.00
30714;BME280;17465;47.934;33.430;2022-12-18T10:11:43;57435.28;;;-140.43;100.00
30714;BME280;17465;47.934;33.430;2022-12-18T10:14:20;57468.11;;;-140.43;100.00
30714;BME280;17465;47.934;33.430;2022-12-18T10:16:59;57476.58;;;-140.43;100.00
30714;BME280;17465;47.934;33.430;2022-12-18T10:22:34;57477.64;;;-140.43;100.00
30714;BME280;17465;47.934;33.430;2022-12-18T10:25:31;57472.35;;;-140.43;100.00
30714;BME280;17465;47.934;33.430;2022-12-18T10:28:10;57451.16;;;-140.43;100.00
30714;BME280;17465;47.934;33.430;2022-12-18T10:30:51;57460.70;;;-140.43;100.00
30714;BME280;17465;47.934;33.430;2022-12-18T10:33:22;57465.99;;;-140.43;100.00
30714;BME280;17465;47.934;33.430;2022-12-18T10:41:50;57471.29;;;-140.43;100.00
30714;BME280;17465;47.934;33.430;2022-12-18T10:44:23;57471.29;;;-140.43;100.00
30714;BME280;17465;47.934;33.430;2022-12-18T11:00:32;57474.46;;;-140.43;100.00
30714;BME280;17465;47.934;33.430;2022-12-18T11:03:01;57470.23;;;-140.43;100.00
30714;BME280;17465;47.934;33.430;2022-12-18T11:05:35;57469.17;;;-140.43;100.00
30714;BME280;17465;47.934;33.430;2022-12-18T11:08:11;57461.76;;;-140.43;100.00
30714;BME280;17465;47.934;33.430;2022-12-18T11:10:39;57472.35;;;-140.43;100.00
30714;BME280;17465;47.934;33.430;2022-12-18T11:13:21;57478.70;;;-140.43;100.00
30714;BME280;17465;47.934;33.430;2022-12-18T11:15:53;57470.23;;;-140.43;100.00
30714;BME280;17465;47.934;33.430;2022-12-18T11:18:28;57471.29;;;-140.43;100.00
30714;BME280;17465;47.934;33.430;2022-12-18T11:21:10;57471.29;;;-140.43;100.00
30714;BME280;17465;47.934;33.430;2022-12-18T11:23:52;57488.23;;;-140.43;100.00
30714;BME280;17465;47.934;33.430;2022-12-18T11:26:33;57462.82;;;-140.43;100.00
30714;BME280;17465;47.934;33.430;2022-12-18T11:29:10;57473.41;;;-140.43;100.00
30714;BME280;17465;47.934;33.430;2022-12-18T11:32:36;57467.05;;;-140.43;100.00
30714;BME280;17465;47.934;33.430;2022-12-18T11:37:59;57485.05;;;-140.43;100.00
30714;BME280;17465;47.934;33.430;2022-12-18T11:40:36;57471.29;;;-140.43;100.00
30714;BME280;17465;47.934;33.430;2022-12-18T11:43:13;57469.17;;;-140.43;100.00
30714;BME280;17465;47.934;33.430;2022-12-18T11:45:48;57469.17;;;-140.43;100.00
30714;BME280;17465;47.934;33.430;2022-12-18T11:48:24;57477.64;;;-140.43;100.00
30714;BME280;17465;47.934;33.430;2022-12-18T11:51:00;57475.52;;;-140.43;100.00
30714;BME280;17465;47.934;33.430;2022-12-18T11:53:32;57476.58;;;-140.43;100.00
30714;BME280;17465;47.934;33.430;2022-12-18T11:56:27;57476.58;;;-140.43;100.00
30714;BME280;17465;47.934;33.430;2022-12-18T11:59:15;57477.64;;;-140.43;100.00
30714;BME280;17465;47.934;33.430;2022-12-18T12:04:56;57482.94;;;-140.43;100.00
30714;BME280;17465;47.934;33.430;2022-12-18T12:10:22;57456.46;;;-140.43;100.00
30714;BME280;17465;47.934;33.430;2022-12-18T12:41:35;57517.89;;;-140.43;100.00
30714;BME280;17465;47.934;33.430;2022-12-18T12:44:09;57495.65;;;-140.43;100.00
30714;BME280;17465;47.934;33.430;2022-12-18T12:46:42;57490.35;;;-140.43;100.00
30714;BME280;17465;47.934;33.430;2022-12-18T12:49:17;57463.87;;;-140.43;100.00
30714;BME280;17465;47.934;33.430;2022-12-18T12:51:58;57488.23;;;-140.43;100.00
30714;BME280;17465;47.934;33.430;2022-12-18T12:54:26;57470.23;;;-140.43;100.00
30714;BME280;17465;47.934;33.430;2022-12-18T12:57:10;57489.29;;;-140.43;100.00
30714;BME280;17465;47.934;33.430;2022-12-18T12:59:57;57463.87;;;-140.43;100.00
30714;BME280;17465;47.934;33.430;2022-12-18T13:07:46;57488.23;;;-140.43;100.00
30714;BME280;17465;47.934;33.430;2022-12-18T13:13:06;57489.29;;;-140.43;100.00
30714;BME280;17465;47.934;33.430;2022-12-18T13:18:19;57481.88;;;-140.43;100.00
30714;BME280;17465;47.934;33.430;2022-12-18T13:21:02;57504.12;;;-140.43;100.00
30714;BME280;17465;47.934;33.430;2022-12-18T13:23:36;57474.46;;;-140.43;100.00
30714;BME280;17465;47.934;33.430;2022-12-18T13:34:28;57500.94;;;-140.43;100.00
30714;BME280;17465;47.934;33.430;2022-12-18T13:39:51;57467.05;;;-140.43;100.00
30714;BME280;17465;47.934;33.430;2022-12-18T13:44:54;57458.58;;;-140.43;100.00
30714;BME280;17465;47.934;33.430;2022-12-18T13:47:36;57474.46;;;-140.43;100.00
30714;BME280;17465;47.934;33.430;2022-12-18T13:53:03;57506.24;;;-140.43;100.00
30714;BME280;17465;47.934;33.430;2022-12-18T13:55:35;57497.77;;;-140.43;100.00
30714;BME280;17465;47.934;33.430;2022-12-18T13:58:06;57497.77;;;-140.43;100.00
30714;BME280;17465;47.934;33.430;2022-12-18T14:00:40;57489.29;;;-140.43;100.00
30714;BME280;17465;47.934;33.430;2022-12-18T14:03:24;57480.82;;;-140.43;100.00
30714;BME280;17465;47.934;33.430;2022-12-18T14:05:58;57495.65;;;-140.43;100.00
30714;BME280;17465;47.934;33.430;2022-12-18T14:08:32;57495.65;;;-140.43;100.00
30714;BME280;17465;47.934;33.430;2022-12-18T14:11:03;57471.29;;;-140.43;100.00
30714;BME280;17465;47.934;33.430;2022-12-18T14:13:37;57495.65;;;-140.43;100.00
30714;BME280;17465;47.934;33.430;2022-12-18T14:16:11;57479.76;;;-140.43;100.00
30714;BME280;17465;47.934;33.430;2022-12-18T14:18:48;57512.59;;;-140.43;100.00
30714;BME280;17465;47.934;33.430;2022-12-18T14:21:21;57503.06;;;-140.43;100.00
30714;BME280;17465;47.934;33.430;2022-12-18T14:29:56;57485.05;;;-140.43;100.00
30714;BME280;17465;47.934;33.430;2022-12-18T14:32:27;57521.07;;;-140.43;100.00
30714;BME280;17465;47.934;33.430;2022-12-18T14:35:12;57506.24;;;-140.43;100.00
30714;BME280;17465;47.934;33.430;2022-12-18T14:37:38;57520.01;;;-140.43;100.00
30714;BME280;17465;47.934;33.430;2022-12-18T14:40:11;57487.18;;;-140.43;100.00
30714;BME280;17465;47.934;33.430;2022-12-18T14:42:48;57478.70;;;-140.43;100.00
30714;BME280;17465;47.934;33.430;2022-12-18T14:45:34;57500.94;;;-140.43;100.00
30714;BME280;17465;47.934;33.430;2022-12-18T14:48:33;57506.24;;;-140.43;100.00
30714;BME280;17465;47.934;33.430;2022-12-18T14:51:06;57496.71;;;-140.43;100.00
30714;BME280;17465;47.934;33.430;2022-12-18T14:53:47;57509.41;;;-140.43;100.00
30714;BME280;17465;47.934;33.430;2022-12-18T14:56:23;57503.06;;;-140.43;100.00
30714;BME280;17465;47.934;33.430;2022-12-18T14:58:58;57503.06;;;-140.43;100.00
30714;BME280;17465;47.934;33.430;2022-12-18T15:01:44;57486.12;;;-140.43;100.00